createdAt,value
2019-05-12T00:00:03.128Z,101164
2019-05-12T00:02:31.955Z,101165
2019-05-12T00:05:00.824Z,101177
2019-05-12T00:07:29.652Z,101171
2019-05-12T00:09:58.523Z,101179
2019-05-12T00:12:27.758Z,101181
2019-05-12T00:14:58.919Z,101180
2019-05-12T00:17:28.322Z,101184
2019-05-12T00:19:54.644Z,101183
2019-05-12T00:22:23.552Z,101190
2019-05-12T00:24:52.379Z,101187
2019-05-12T00:27:21.234Z,101197
2019-05-12T00:29:50.086Z,101200
2019-05-12T00:32:18.933Z,101199
2019-05-12T00:34:48.146Z,101205
2019-05-12T00:37:18.538Z,101212
2019-05-12T00:39:47.831Z,101212
2019-05-12T00:42:15.042Z,101207
2019-05-12T00:44:44.476Z,101212
2019-05-12T00:47:14.066Z,101211
2019-05-12T00:49:43.655Z,101210
2019-05-12T00:52:12.484Z,101224
2019-05-12T00:54:41.329Z,101223
2019-05-12T00:57:10.216Z,101222
2019-05-12T00:59:39.028Z,101238
2019-05-12T01:02:08.148Z,101244
2019-05-12T01:04:38.124Z,101240
2019-05-12T01:07:05.575Z,101249
2019-05-12T01:09:34.506Z,101250
2019-05-12T01:12:03.300Z,101244
2019-05-12T01:14:32.145Z,101248
2019-05-12T01:17:00.963Z,101264
2019-05-12T01:19:30.549Z,101251
2019-05-12T01:21:59.399Z,101254
2019-05-12T01:24:28.461Z,101264
2019-05-12T01:26:58.258Z,101261
2019-05-12T01:29:28.173Z,101279
2019-05-12T01:31:55.413Z,101274
2019-05-12T01:34:24.247Z,101279
2019-05-12T01:36:53.095Z,101278
2019-05-12T01:39:22.723Z,101286
2019-05-12T01:41:52.408Z,101273
2019-05-12T01:44:21.901Z,101277
2019-05-12T01:46:50.730Z,101299
2019-05-12T01:49:19.564Z,101288
2019-05-12T01:51:48.399Z,101290
2019-05-12T01:54:18.850Z,101300
2019-05-12T01:56:48.339Z,101302
2019-05-12T01:59:15.652Z,101309
2019-05-12T02:01:44.498Z,101317
2019-05-12T02:04:13.329Z,101323
2019-05-12T02:06:42.179Z,101326
2019-05-12T02:09:12.792Z,101327
2019-05-12T02:11:41.596Z,101335
2019-05-12T02:14:10.456Z,101339
2019-05-12T02:16:40.048Z,101337
2019-05-12T02:19:09.624Z,101333
2019-05-12T02:21:38.489Z,101352
2019-05-12T02:24:12.188Z,101343
2019-05-12T02:26:38.238Z,101348
2019-05-12T02:29:07.722Z,101357
2019-05-12T02:31:34.586Z,101366
2019-05-12T02:34:05.648Z,101357
2019-05-12T02:36:34.197Z,101367
2019-05-12T02:39:01.143Z,101373
2019-05-12T02:41:29.972Z,101370
2019-05-12T02:43:58.815Z,101369
2019-05-12T02:46:27.648Z,101382
2019-05-12T02:48:56.484Z,101386
2019-05-12T02:51:25.345Z,101380
2019-05-12T02:53:54.655Z,101389
2019-05-12T02:56:25.741Z,101389
2019-05-12T02:58:54.321Z,101398
2019-05-12T03:01:20.756Z,101406
2019-05-12T03:03:49.596Z,101403
2019-05-12T03:06:18.444Z,101411
2019-05-12T03:08:47.285Z,101417
2019-05-12T03:11:16.139Z,101421
2019-05-12T03:13:45.079Z,101418
2019-05-12T03:16:14.894Z,101419
2019-05-12T03:18:44.925Z,101418
2019-05-12T03:21:11.536Z,101424
2019-05-12T03:23:44.240Z,101430
2019-05-12T03:26:09.827Z,101431
2019-05-12T03:28:38.685Z,101436
2019-05-12T03:31:08.531Z,101446
2019-05-12T03:33:43.531Z,101445
2019-05-12T03:36:09.148Z,101444
2019-05-12T03:38:35.958Z,101453
2019-05-12T03:41:05.293Z,101456
2019-05-12T03:43:34.863Z,101472
2019-05-12T03:46:00.653Z,101475
2019-05-12T03:48:30.259Z,101477
2019-05-12T03:50:59.823Z,101483
2019-05-12T03:53:28.680Z,101491
2019-05-12T03:55:57.560Z,101492
2019-05-12T03:58:27.117Z,101497
2019-05-12T04:00:55.991Z,101511
2019-05-12T04:03:24.893Z,101514
2019-05-12T04:05:55.401Z,101508
2019-05-12T04:08:24.750Z,101505
2019-05-12T04:10:54.755Z,101508
2019-05-12T04:13:21.753Z,101524
2019-05-12T04:15:51.195Z,101521
2019-05-12T04:18:19.997Z,101529
2019-05-12T04:20:48.876Z,101538
2019-05-12T04:23:17.746Z,101539
2019-05-12T04:25:52.915Z,101545
2019-05-12T04:28:15.449Z,101547
2019-05-12T04:30:44.652Z,101543
2019-05-12T04:33:15.556Z,101540
2019-05-12T04:35:45.177Z,101539
2019-05-12T04:38:15.013Z,101548
2019-05-12T04:40:44.689Z,101563
2019-05-12T04:43:10.016Z,101567
2019-05-12T04:45:38.882Z,101576
2019-05-12T04:48:07.733Z,101581
2019-05-12T04:50:36.689Z,101584
2019-05-12T04:53:06.202Z,101582
2019-05-12T04:55:35.557Z,101575
2019-05-12T04:58:04.718Z,101578
2019-05-12T05:00:34.957Z,101589
2019-05-12T05:03:01.400Z,101601
2019-05-12T05:05:30.246Z,101604
2019-05-12T05:07:59.848Z,101616
2019-05-12T05:10:29.437Z,101615
2019-05-12T05:12:58.284Z,101613
2019-05-12T05:15:27.129Z,101613
2019-05-12T05:17:56.048Z,101627
2019-05-12T05:20:24.876Z,101635
2019-05-12T05:22:54.257Z,101633
2019-05-12T05:25:23.646Z,101640
2019-05-12T05:27:53.298Z,101651
2019-05-12T05:30:21.092Z,101648
2019-05-12T05:32:49.936Z,101651
2019-05-12T05:35:18.784Z,101654
2019-05-12T05:37:47.635Z,101663
2019-05-12T05:40:19.882Z,101665
2019-05-12T05:42:45.936Z,101663
2019-05-12T05:45:19.548Z,101676
2019-05-12T05:47:44.278Z,101666
2019-05-12T05:50:13.543Z,101684
2019-05-12T05:52:43.277Z,101682
2019-05-12T05:55:14.756Z,101682
2019-05-12T05:57:39.036Z,101682
2019-05-12T06:00:17.485Z,101694
2019-05-12T06:02:40.366Z,101700
2019-05-12T06:05:06.352Z,101697
2019-05-12T06:07:39.136Z,101702
2019-05-12T06:10:04.203Z,101699
2019-05-12T06:12:40.371Z,101709
2019-05-12T06:15:09.007Z,101707
2019-05-12T06:17:36.550Z,101709
2019-05-12T06:20:05.396Z,101712
2019-05-12T06:22:34.973Z,101720
2019-05-12T06:25:04.864Z,101728
2019-05-12T06:27:33.665Z,101726
2019-05-12T06:30:06.017Z,101727
2019-05-12T06:32:30.356Z,101734
2019-05-12T06:35:01.631Z,101734
2019-05-12T06:37:28.030Z,101736
2019-05-12T06:40:00.503Z,101735
2019-05-12T06:42:25.742Z,101746
2019-05-12T06:44:57.900Z,101747
2019-05-12T06:47:24.173Z,101744
2019-05-12T06:49:54.792Z,101762
2019-05-12T06:52:23.660Z,101752
2019-05-12T06:54:54.666Z,101763
2019-05-12T06:57:25.419Z,101756
2019-05-12T06:59:51.414Z,101761
2019-05-12T07:02:17.172Z,101770
2019-05-12T07:04:50.298Z,101773
2019-05-12T07:07:14.880Z,101778
2019-05-12T07:09:52.856Z,101770
2019-05-12T07:12:13.762Z,101786
2019-05-12T07:14:43.413Z,101788
2019-05-12T07:17:15.673Z,101790
2019-05-12T07:19:44.524Z,101798
2019-05-12T07:22:21.908Z,101806
2019-05-12T07:24:50.217Z,101806
2019-05-12T07:27:13.942Z,101796
2019-05-12T07:29:40.634Z,101803
2019-05-12T07:32:16.564Z,101804
2019-05-12T07:34:39.154Z,101812
2019-05-12T07:37:07.990Z,101807
2019-05-12T07:39:44.789Z,101814
2019-05-12T07:42:05.747Z,101824
2019-05-12T07:44:40.321Z,101829
2019-05-12T07:47:03.711Z,101821
2019-05-12T07:49:38.240Z,101835
2019-05-12T07:52:03.443Z,101834
2019-05-12T07:54:34.647Z,101842
2019-05-12T07:57:05.381Z,101853
2019-05-12T07:59:38.990Z,101848
2019-05-12T08:01:56.498Z,101854
2019-05-12T08:04:26.096Z,101856
2019-05-12T08:06:54.993Z,101850
2019-05-12T08:09:32.144Z,101862
2019-05-12T08:11:54.077Z,101864
2019-05-12T08:14:27.792Z,101879
2019-05-12T08:16:50.364Z,101875
2019-05-12T08:19:24.020Z,101877
2019-05-12T08:21:49.332Z,101869
2019-05-12T08:24:17.645Z,101881
2019-05-12T08:26:49.613Z,101879
2019-05-12T08:29:21.353Z,101895
2019-05-12T08:31:44.954Z,101887
2019-05-12T08:34:13.799Z,101894
2019-05-12T08:36:44.952Z,101896
2019-05-12T08:39:18.119Z,101903
2019-05-12T08:41:40.412Z,101897
2019-05-12T08:44:09.960Z,101908
2019-05-12T08:46:45.660Z,101903
2019-05-12T08:49:07.639Z,101906
2019-05-12T08:51:36.503Z,101922
2019-05-12T08:54:08.098Z,101906
2019-05-12T08:56:34.923Z,101916
2019-05-12T08:59:04.366Z,101923
2019-05-12T09:01:34.353Z,101921
2019-05-12T09:04:06.459Z,101939
2019-05-12T09:06:30.336Z,101937
2019-05-12T09:08:59.178Z,101938
2019-05-12T09:11:28.019Z,101944
2019-05-12T09:14:00.322Z,101944
2019-05-12T09:16:26.498Z,101947
2019-05-12T09:18:55.496Z,101944
2019-05-12T09:21:31.452Z,101938
2019-05-12T09:23:55.850Z,101947
2019-05-12T09:26:24.962Z,101941
2019-05-12T09:28:51.492Z,101945
2019-05-12T09:31:25.497Z,101945
2019-05-12T09:33:49.915Z,101940
2019-05-12T09:36:21.532Z,101941
2019-05-12T09:38:47.636Z,101944
2019-05-12T09:41:16.496Z,101946
2019-05-12T09:43:50.165Z,101948
2019-05-12T09:46:14.534Z,101944
2019-05-12T09:48:47.830Z,101944
2019-05-12T09:51:13.424Z,101958
2019-05-12T09:53:42.740Z,101959
2019-05-12T09:56:10.176Z,101959
2019-05-12T09:58:39.033Z,101955
2019-05-12T10:01:07.895Z,101961
2019-05-12T10:03:39.839Z,101959
2019-05-12T10:06:05.610Z,101953
2019-05-12T10:08:35.829Z,101954
2019-05-12T10:11:03.743Z,101965
2019-05-12T10:13:32.176Z,101956
2019-05-12T10:16:04.927Z,101977
2019-05-12T10:18:30.589Z,101967
2019-05-12T10:20:59.429Z,101973
2019-05-12T10:23:29.005Z,101973
2019-05-12T10:26:01.360Z,101975
2019-05-12T10:28:26.682Z,101978
2019-05-12T10:30:56.973Z,101977
2019-05-12T10:33:24.376Z,101983
2019-05-12T10:35:54.203Z,101980
2019-05-12T10:38:23.997Z,101985
2019-05-12T10:40:50.936Z,101978
2019-05-12T10:43:19.773Z,101982
2019-05-12T10:45:48.623Z,101976
2019-05-12T10:48:17.491Z,101990
2019-05-12T10:50:46.343Z,101981
2019-05-12T10:53:17.744Z,101982
2019-05-12T10:55:44.171Z,101978
2019-05-12T10:58:14.524Z,101977
2019-05-12T11:00:44.188Z,101981
2019-05-12T11:03:12.427Z,101979
2019-05-12T11:05:39.427Z,101970
2019-05-12T11:08:11.087Z,101979
2019-05-12T11:10:37.137Z,101968
2019-05-12T11:13:08.509Z,101967
2019-05-12T11:15:39.489Z,101970
2019-05-12T11:18:03.697Z,101964
2019-05-12T11:20:34.395Z,101973
2019-05-12T11:23:03.390Z,101980
2019-05-12T11:25:30.767Z,101978
2019-05-12T11:27:59.625Z,101981
2019-05-12T11:30:28.476Z,101992
2019-05-12T11:32:59.729Z,101980
2019-05-12T11:35:26.176Z,101994
2019-05-12T11:37:55.026Z,101989
2019-05-12T11:40:24.045Z,101986
2019-05-12T11:42:55.679Z,101988
2019-05-12T11:45:21.553Z,101986
2019-05-12T11:47:50.389Z,101994
2019-05-12T11:50:19.976Z,101993
2019-05-12T11:52:51.017Z,101995
2019-05-12T11:55:21.397Z,101994
2019-05-12T11:57:47.258Z,101996
2019-05-12T12:00:16.103Z,101994
2019-05-12T12:02:44.941Z,101994
2019-05-12T12:05:14.522Z,101992
2019-05-12T12:07:49.057Z,101997
2019-05-12T12:10:14.110Z,101989
2019-05-12T12:12:45.292Z,101998
2019-05-12T12:15:10.693Z,102008
2019-05-12T12:17:39.538Z,102001
2019-05-12T12:20:08.401Z,101997
2019-05-12T12:22:43.450Z,102003
2019-05-12T12:25:13.578Z,102006
2019-05-12T12:27:40.596Z,102005
2019-05-12T12:30:18.620Z,102003
2019-05-12T12:32:39.034Z,102008
2019-05-12T12:35:11.915Z,102005
2019-05-12T12:37:36.708Z,102008
2019-05-12T12:40:05.534Z,102008
2019-05-12T12:42:36.912Z,102007
2019-05-12T12:45:04.360Z,102003
2019-05-12T12:47:37.999Z,101992
2019-05-12T12:50:04.051Z,101995
2019-05-12T12:52:33.269Z,101996
2019-05-12T12:55:06.826Z,101997
2019-05-12T12:57:28.802Z,101997
2019-05-12T12:59:58.231Z,101995
2019-05-12T13:02:27.852Z,101997
2019-05-12T13:04:56.683Z,101983
2019-05-12T13:07:25.513Z,101993
2019-05-12T13:10:07.189Z,101989
2019-05-12T13:12:24.704Z,102001
2019-05-12T13:14:53.547Z,101993
2019-05-12T13:17:29.058Z,102001
2019-05-12T13:19:54.754Z,101999
2019-05-12T13:22:20.107Z,101998
2019-05-12T13:24:48.953Z,102003
2019-05-12T13:27:19.197Z,101999
2019-05-12T13:29:46.658Z,102005
2019-05-12T13:32:16.235Z,102009
2019-05-12T13:34:45.663Z,102000
2019-05-12T13:37:19.184Z,101992
2019-05-12T13:39:55.298Z,101998
2019-05-12T13:42:13.651Z,101991
2019-05-12T13:44:43.186Z,101987
2019-05-12T13:47:09.984Z,101991
2019-05-12T13:49:42.816Z,101996
2019-05-12T13:52:07.664Z,101996
2019-05-12T13:54:36.503Z,101997
2019-05-12T13:57:11.731Z,101998
2019-05-12T13:59:34.241Z,101997
2019-05-12T14:02:03.353Z,101998
2019-05-12T14:04:33.677Z,101994
2019-05-12T14:07:00.793Z,101995
2019-05-12T14:09:29.631Z,101983
2019-05-12T14:11:58.483Z,101992
2019-05-12T14:14:27.350Z,101999
2019-05-12T14:16:59.417Z,101996
2019-05-12T14:19:25.042Z,101984
2019-05-12T14:21:54.320Z,101996
2019-05-12T14:24:23.302Z,101990
2019-05-12T14:26:53.413Z,101993
2019-05-12T14:29:25.402Z,101991
2019-05-12T14:31:54.517Z,101988
2019-05-12T14:34:20.790Z,101990
2019-05-12T14:36:47.683Z,101980
2019-05-12T14:39:16.533Z,102013
2019-05-12T14:41:53.173Z,101986
2019-05-12T14:44:14.251Z,101973
2019-05-12T14:46:46.334Z,101982
2019-05-12T14:49:14.027Z,101989
2019-05-12T14:51:40.757Z,101986
2019-05-12T14:54:09.603Z,101984
2019-05-12T14:56:38.433Z,101984
2019-05-12T14:59:07.266Z,101986
2019-05-12T15:01:51.592Z,101983
2019-05-12T15:04:05.292Z,101982
2019-05-12T15:06:34.064Z,101982
2019-05-12T15:09:03.361Z,101984
2019-05-12T15:11:31.487Z,101979
2019-05-12T15:14:00.380Z,101986
2019-05-12T15:16:31.853Z,101986
2019-05-12T15:18:58.033Z,101987
2019-05-12T15:21:31.180Z,101982
2019-05-12T15:23:56.489Z,101983
2019-05-12T15:26:25.325Z,101983
2019-05-12T15:28:54.466Z,101982
2019-05-12T15:31:23.747Z,101983
2019-05-12T15:33:52.533Z,101989
2019-05-12T15:36:21.369Z,101990
2019-05-12T15:38:55.535Z,101983
2019-05-12T15:41:20.232Z,101985
2019-05-12T15:43:49.046Z,101983
2019-05-12T15:46:16.769Z,101986
2019-05-12T15:48:45.612Z,101998
2019-05-12T15:51:15.191Z,101994
2019-05-12T15:53:44.547Z,101996
2019-05-12T15:56:21.031Z,101992
2019-05-12T15:58:44.180Z,101999
2019-05-12T16:01:13.878Z,102009
2019-05-12T16:03:40.242Z,102003
2019-05-12T16:06:11.710Z,102002
2019-05-12T16:08:37.973Z,102001
2019-05-12T16:11:06.811Z,102006
2019-05-12T16:13:35.657Z,102009
2019-05-12T16:16:06.683Z,102011
2019-05-12T16:18:34.471Z,102021
2019-05-12T16:21:07.276Z,102007
2019-05-12T16:23:33.968Z,102007
2019-05-12T16:26:01.563Z,102006
2019-05-12T16:28:30.198Z,102011
2019-05-12T16:31:04.287Z,102013
2019-05-12T16:33:27.903Z,102004
2019-05-12T16:35:59.889Z,102009
2019-05-12T16:38:26.441Z,102007
2019-05-12T16:40:55.258Z,102010
2019-05-12T16:43:24.115Z,102005
2019-05-12T16:45:53.799Z,102013
2019-05-12T16:48:30.184Z,102012
2019-05-12T16:50:51.451Z,102007
2019-05-12T16:53:22.053Z,102018
2019-05-12T16:55:50.019Z,102012
2019-05-12T16:58:23.321Z,102006
2019-05-12T17:00:49.715Z,102010
2019-05-12T17:03:18.198Z,102013
2019-05-12T17:05:44.878Z,102015
2019-05-12T17:08:14.022Z,102019
2019-05-12T17:10:46.965Z,102016
2019-05-12T17:13:13.474Z,102017
2019-05-12T17:15:40.277Z,102019
2019-05-12T17:18:09.133Z,102022
2019-05-12T17:20:40.888Z,102014
2019-05-12T17:23:07.615Z,102026
2019-05-12T17:25:36.485Z,102021
2019-05-12T17:28:05.796Z,102022
2019-05-12T17:30:34.900Z,102022
2019-05-12T17:33:05.182Z,102016
2019-05-12T17:35:34.963Z,102021
2019-05-12T17:38:04.084Z,102018
2019-05-12T17:40:33.694Z,102036
2019-05-12T17:43:09.177Z,102032
2019-05-12T17:45:28.747Z,102031
2019-05-12T17:48:02.935Z,102036
2019-05-12T17:50:26.472Z,102030
2019-05-12T17:52:58.988Z,102038
2019-05-12T17:55:24.146Z,102033
2019-05-12T17:57:56.495Z,102036
2019-05-12T18:00:23.483Z,102051
2019-05-12T18:02:56.255Z,102048
2019-05-12T18:05:19.587Z,102051
2019-05-12T18:07:50.932Z,102045
2019-05-12T18:10:17.246Z,102051
2019-05-12T18:12:46.108Z,102061
2019-05-12T18:15:15.472Z,102061
2019-05-12T18:17:47.386Z,102071
2019-05-12T18:20:14.391Z,102064
2019-05-12T18:22:44.863Z,102068
2019-05-12T18:25:11.174Z,102073
2019-05-12T18:27:44.529Z,102069
2019-05-12T18:30:08.895Z,102068
2019-05-12T18:32:37.753Z,102079
2019-05-12T18:35:06.605Z,102083
2019-05-12T18:37:35.459Z,102082
2019-05-12T18:40:04.302Z,102089
2019-05-12T18:42:33.696Z,102088
2019-05-12T18:45:11.866Z,102100
2019-05-12T18:47:36.302Z,102099
2019-05-12T18:50:01.211Z,102111
2019-05-12T18:52:39.291Z,102100
2019-05-12T18:54:58.959Z,102104
2019-05-12T18:57:27.794Z,102101
2019-05-12T19:00:03.438Z,102114
2019-05-12T19:02:28.500Z,102112
2019-05-12T19:04:54.348Z,102126
2019-05-12T19:07:38.650Z,102126
2019-05-12T19:09:52.059Z,102132
2019-05-12T19:12:31.764Z,102121
2019-05-12T19:14:52.516Z,102125
2019-05-12T19:17:19.380Z,102134
2019-05-12T19:19:52.147Z,102134
2019-05-12T19:22:17.114Z,102139
2019-05-12T19:24:50.084Z,102145
2019-05-12T19:27:16.551Z,102144
2019-05-12T19:29:48.346Z,102155
2019-05-12T19:32:14.338Z,102159
2019-05-12T19:34:43.353Z,102167
2019-05-12T19:37:14.143Z,102164
2019-05-12T19:39:40.531Z,102167
2019-05-12T19:42:10.441Z,102170
2019-05-12T19:44:38.251Z,102172
2019-05-12T19:47:07.833Z,102175
2019-05-12T19:49:46.660Z,102185
2019-05-12T19:52:05.547Z,102185
2019-05-12T19:54:36.849Z,102183
2019-05-12T19:57:03.288Z,102189
2019-05-12T19:59:34.155Z,102191
2019-05-12T20:02:01.030Z,102192
2019-05-12T20:04:33.867Z,102192
2019-05-12T20:07:00.245Z,102199
2019-05-12T20:09:29.077Z,102197
2019-05-12T20:12:01.219Z,102202
2019-05-12T20:14:26.800Z,102200
2019-05-12T20:16:55.646Z,102194
2019-05-12T20:19:25.540Z,102197
2019-05-12T20:21:54.317Z,102184
2019-05-12T20:24:23.682Z,102192
2019-05-12T20:26:53.717Z,102203
2019-05-12T20:29:26.617Z,102193
2019-05-12T20:31:49.532Z,102198
2019-05-12T20:34:18.377Z,102197
2019-05-12T20:36:47.271Z,102201
2019-05-12T20:39:21.728Z,102201
2019-05-12T20:41:45.576Z,102203
2019-05-12T20:44:17.323Z,102203
2019-05-12T20:46:43.346Z,102208
2019-05-12T20:49:14.735Z,102219
2019-05-12T20:51:40.955Z,102211
2019-05-12T20:54:15.323Z,102213
2019-05-12T20:56:39.277Z,102214
2019-05-12T20:59:08.130Z,102215
2019-05-12T21:01:37.003Z,102216
2019-05-12T21:04:07.723Z,102227
2019-05-12T21:06:41.813Z,102221
2019-05-12T21:09:04.304Z,102222
2019-05-12T21:11:33.843Z,102224
2019-05-12T21:14:09.929Z,102216
2019-05-12T21:16:34.641Z,102217
2019-05-12T21:19:07.564Z,102225
2019-05-12T21:21:34.351Z,102227
2019-05-12T21:23:59.493Z,102229
2019-05-12T21:26:28.404Z,102230
2019-05-12T21:28:55.130Z,102220
2019-05-12T21:31:26.714Z,102217
2019-05-12T21:33:53.500Z,102225
2019-05-12T21:36:24.467Z,102225
2019-05-12T21:38:50.568Z,102233
2019-05-12T21:41:21.837Z,102229
2019-05-12T21:43:48.980Z,102239
2019-05-12T21:46:17.828Z,102237
2019-05-12T21:48:46.665Z,102238
2019-05-12T21:51:19.898Z,102244
2019-05-12T21:53:44.391Z,102240
2019-05-12T21:56:13.944Z,102239
2019-05-12T21:58:53.357Z,102242
2019-05-12T22:01:13.551Z,102247
2019-05-12T22:03:45.901Z,102240
2019-05-12T22:06:19.072Z,102237
2019-05-12T22:08:38.253Z,102246
2019-05-12T22:11:11.283Z,102248
2019-05-12T22:13:35.951Z,102246
2019-05-12T22:16:04.801Z,102255
2019-05-12T22:18:33.651Z,102244
2019-05-12T22:21:06.105Z,102243
2019-05-12T22:23:33.152Z,102256
2019-05-12T22:26:00.561Z,102250
2019-05-12T22:28:29.832Z,102256
2019-05-12T22:30:58.713Z,102251
2019-05-12T22:33:27.551Z,102256
2019-05-12T22:36:05.214Z,102256
2019-05-12T22:38:25.299Z,102250
2019-05-12T22:40:59.402Z,102256
2019-05-12T22:43:23.924Z,102258
2019-05-12T22:48:37.079Z,102257
2019-05-12T22:50:59.622Z,102266
2019-05-12T22:53:30.061Z,102270
2019-05-12T22:56:02.241Z,102272
2019-05-12T22:58:26.131Z,102261
2019-05-12T23:01:00.740Z,102265
2019-05-12T23:03:25.341Z,102267
2019-05-12T23:05:59.747Z,102266
2019-05-12T23:08:24.686Z,102274
2019-05-12T23:10:53.995Z,102272
2019-05-12T23:13:23.800Z,102274
2019-05-12T23:15:51.877Z,102278
2019-05-12T23:18:28.661Z,102276
2019-05-12T23:20:49.554Z,102278
2019-05-12T23:23:18.967Z,102282
2019-05-12T23:25:51.941Z,102284
2019-05-12T23:28:16.093Z,102281
2019-05-12T23:30:48.464Z,102280
2019-05-12T23:33:14.510Z,102268
2019-05-12T23:35:44.366Z,102260
2019-05-12T23:38:18.877Z,102275
2019-05-12T23:40:43.261Z,102264
2019-05-12T23:43:09.864Z,102271
2019-05-12T23:45:38.713Z,102270
2019-05-12T23:48:07.546Z,102265
2019-05-12T23:50:36.440Z,102270
2019-05-12T23:53:05.993Z,102271
2019-05-12T23:55:35.594Z,102265
2019-05-12T23:58:04.565Z,102267
